»·PEaware :: N2MZ KRNM-KSNA

N2MZ :: KRNM-KSNA

FLIGHT INFORMATION

Flight Status: Arrived
Operator: Privately registered:
United States
More flights under this callsign
Pilot: Mike Z. (25595)
Aircraft: CESSNA 172 SKYHAWK
(C172)
More flights by this aircraft type
Origin: KRNM Ramona
United States
Destination: KSNA John Wayne-Orange Co
United States
More flights between these airports :: More routes between these airports
Route: +ROBNN V208 OCN V23 SLI
File this flight plan on PilotEdge
Remarks: TEC SANP2
Altitude:
(Current/Filed)
6,000ft
Speed:
(Current/Filed)
120kts
Departed: 08-Oct-19 03:28 PM
Arrived: 08-Oct-19 04:30 PM
Distance/Time
Traveled:
61nm/1:02
Distance/Time
To Go:
Arrived

Flight Plot

Page will automatically refresh every two minutes.


Map Options




Map Legend


Flown Route
Filed Route
Departure Airport
Arrival Airport
Navaid (VOR, NDB)
Fix

Horizontal Profiles

Position Reports

Time Latitude Longitude Heading Altitude Ground
Speed
08-Oct-19 14:56 33.039293 -116.908029 275 1390ft 0kts
08-Oct-19 14:57 33.039293 -116.908029 275 1390ft 0kts
08-Oct-19 14:58 33.039293 -116.908029 275 1390ft 0kts
08-Oct-19 14:59 33.039293 -116.908029 275 1390ft 0kts
08-Oct-19 15:00 33.039293 -116.908029 275 1390ft 0kts
08-Oct-19 15:01 33.039293 -116.908029 275 1390ft 0kts
08-Oct-19 15:02 33.039293 -116.908029 275 1390ft 0kts
08-Oct-19 15:03 33.039293 -116.908029 275 1390ft 0kts
08-Oct-19 15:04 33.039293 -116.908029 275 1390ft 0kts
08-Oct-19 15:05 33.039293 -116.908029 275 1390ft 0kts
08-Oct-19 15:06 33.039293 -116.908029 275 1390ft 0kts
08-Oct-19 15:07 33.039293 -116.908029 275 1390ft 0kts
08-Oct-19 15:08 33.039293 -116.908029 275 1390ft 0kts
08-Oct-19 15:09 33.039293 -116.908029 275 1390ft 0kts
08-Oct-19 15:10 33.039293 -116.908029 275 1390ft 0kts
08-Oct-19 15:11 33.039293 -116.908029 275 1390ft 0kts
08-Oct-19 15:12 33.039293 -116.908029 275 1390ft 0kts
08-Oct-19 15:13 33.039293 -116.908029 275 1390ft 0kts
08-Oct-19 15:14 33.039293 -116.908029 275 1390ft 0kts
08-Oct-19 15:15 33.039293 -116.908029 275 1390ft 0kts
08-Oct-19 15:16 33.039293 -116.908029 275 1390ft 0kts
08-Oct-19 15:17 33.039293 -116.908029 275 1390ft 0kts
08-Oct-19 15:18 33.039293 -116.908029 275 1390ft 0kts
08-Oct-19 15:19 33.039294 -116.908037 274 1390ft 0kts
08-Oct-19 15:20 33.038537 -116.906971 231 1389ft 0kts
08-Oct-19 15:21 33.038519 -116.907042 261 1389ft 0kts
08-Oct-19 15:22 33.038519 -116.907042 261 1389ft 0kts
08-Oct-19 15:23 33.038515 -116.907069 260 1389ft 0kts
08-Oct-19 15:24 33.038515 -116.907069 260 1389ft 0kts
08-Oct-19 15:25 33.038515 -116.907069 260 1389ft 0kts
08-Oct-19 15:26 33.038415 -116.907229 197 1388ft 0kts
08-Oct-19 15:27 33.039170 -116.915264 275 1420ft 76kts
08-Oct-19 15:28 33.043520 -116.941185 275 1924ft 84kts
08-Oct-19 15:29 33.045504 -116.967145 285 2480ft 82kts
08-Oct-19 15:30 33.050079 -116.987429 27 2974ft 81kts
08-Oct-19 15:31 33.036758 -116.978553 180 3433ft 83kts
08-Oct-19 15:32 33.014373 -116.978179 181 3940ft 80kts
08-Oct-19 15:33 32.993338 -116.977238 178 4407ft 76kts
08-Oct-19 15:34 32.971916 -116.976910 178 4864ft 75kts
08-Oct-19 15:35 32.956600 -116.984633 262 5237ft 65kts
08-Oct-19 15:36 32.958324 -117.007391 277 5494ft 75kts
08-Oct-19 15:37 32.961727 -117.031875 287 5890ft 74kts
08-Oct-19 15:38 32.975759 -117.052624 309 6089ft 99kts
08-Oct-19 15:39 32.994724 -117.080833 307 6077ft 114kts
08-Oct-19 15:40 33.014550 -117.111167 313 6076ft 116kts
08-Oct-19 15:41 33.036452 -117.139297 312 6076ft 116kts
08-Oct-19 15:42 33.057795 -117.168124 310 6076ft 116kts
08-Oct-19 15:43 33.078568 -117.197622 310 6076ft 116kts
08-Oct-19 15:44 33.100242 -117.226031 311 6076ft 116kts
08-Oct-19 15:45 33.121439 -117.255162 310 6076ft 116kts
08-Oct-19 15:46 33.142766 -117.283941 312 6076ft 116kts
08-Oct-19 15:47 33.164084 -117.312947 310 6076ft 116kts
08-Oct-19 15:48 33.185326 -117.341853 312 6076ft 116kts
08-Oct-19 15:49 33.206590 -117.370753 310 6076ft 116kts
08-Oct-19 15:50 33.228031 -117.399565 313 6076ft 116kts
08-Oct-19 15:51 33.250309 -117.427469 314 6076ft 116kts
08-Oct-19 15:52 33.272681 -117.455183 314 6076ft 116kts
08-Oct-19 15:53 33.295052 -117.483005 313 6076ft 116kts
08-Oct-19 15:54 33.317368 -117.510858 313 6091ft 115kts
08-Oct-19 15:55 33.340761 -117.537147 321 6091ft 115kts
08-Oct-19 15:56 33.365147 -117.561835 318 6091ft 115kts
08-Oct-19 15:57 33.387957 -117.588748 314 6091ft 115kts
08-Oct-19 15:58 33.410375 -117.616025 314 6091ft 115kts
08-Oct-19 15:59 33.432866 -117.643161 315 6091ft 115kts
08-Oct-19 16:00 33.455530 -117.669767 315 6091ft 115kts
08-Oct-19 16:01 33.478324 -117.696626 315 6091ft 115kts
08-Oct-19 16:02 33.501007 -117.723548 314 6091ft 115kts
08-Oct-19 16:03 33.523678 -117.750620 314 6091ft 115kts
08-Oct-19 16:04 33.546310 -117.777736 314 6091ft 115kts
08-Oct-19 16:05 33.568901 -117.804858 314 6091ft 115kts
08-Oct-19 16:06 33.591541 -117.832076 314 6091ft 115kts
08-Oct-19 16:07 33.614151 -117.859287 314 6091ft 115kts
08-Oct-19 16:08 33.636682 -117.886429 314 6091ft 115kts
08-Oct-19 16:09 33.659320 -117.913724 314 6091ft 115kts
08-Oct-19 16:10 33.681829 -117.940886 314 6091ft 115kts
08-Oct-19 16:11 33.707175 -117.967995 342 5632ft 129kts
08-Oct-19 16:12 33.740443 -117.955139 31 5091ft 124kts
08-Oct-19 16:13 33.770857 -117.932027 32 4069ft 118kts
08-Oct-19 16:14 33.797714 -117.911685 31 4091ft 112kts
08-Oct-19 16:15 33.824228 -117.891706 31 4092ft 112kts
08-Oct-19 16:16 33.850814 -117.871779 31 4092ft 112kts
08-Oct-19 16:17 33.877368 -117.851982 31 4091ft 111kts
08-Oct-19 16:18 33.888601 -117.821745 111 3544ft 129kts
08-Oct-19 16:19 33.875065 -117.781720 111 3086ft 116kts
08-Oct-19 16:20 33.851105 -117.767582 182 3091ft 107kts
08-Oct-19 16:21 33.826633 -117.774732 196 3037ft 124kts
08-Oct-19 16:22 33.797046 -117.793320 204 2595ft 107kts
08-Oct-19 16:23 33.774476 -117.806871 206 2071ft 73kts
08-Oct-19 16:24 33.753572 -117.820115 202 1752ft 87kts
08-Oct-19 16:25 33.732413 -117.834754 207 1215ft 86kts
08-Oct-19 16:26 33.712263 -117.845729 207 779ft 70kts
08-Oct-19 16:27 33.693538 -117.857546 207 349ft 70kts
08-Oct-19 16:28 33.677160 -117.867918 208 60ft 51kts
08-Oct-19 16:29 33.674214 -117.870792 285 60ft 0kts
08-Oct-19 16:30 33.672752 -117.873064 272 60ft 6kts
08-Oct-19 16:31 33.672713 -117.873165 213 60ft 0kts
08-Oct-19 16:32 33.672713 -117.873165 213 60ft 0kts

Navigation Log

Ident Type
Flight plan parsing failed, navigation log unavailable